createdAt,value
2019-05-06T00:00:59.744Z,34.88
2019-05-06T00:03:34.215Z,41.48
2019-05-06T00:06:06.348Z,22.65
2019-05-06T00:08:38.719Z,28.55
2019-05-06T00:11:11.008Z,11.22
2019-05-06T00:13:44.513Z,11.73
2019-05-06T00:16:17.087Z,16.93
2019-05-06T00:18:49.665Z,7.83
2019-05-06T00:21:24.370Z,35.48
2019-05-06T00:23:56.465Z,33.07
2019-05-06T00:26:34.123Z,32.55
2019-05-06T00:29:09.197Z,23.07
2019-05-06T00:31:43.885Z,13.45
2019-05-06T00:34:15.887Z,23.15
2019-05-06T00:36:48.276Z,22.67
2019-05-06T00:39:24.210Z,28.87
2019-05-06T00:41:57.954Z,22.80
2019-05-06T00:44:30.406Z,15.70
2019-05-06T00:47:04.322Z,19.82
2019-05-06T00:49:36.676Z,11.28
2019-05-06T00:52:09.371Z,10.32
2019-05-06T00:54:43.644Z,9.13
2019-05-06T00:57:15.947Z,8.50
2019-05-06T00:59:49.759Z,13.00
2019-05-06T01:02:23.464Z,4.95
2019-05-06T01:04:55.738Z,4.80
2019-05-06T01:07:28.022Z,4.80
2019-05-06T01:10:00.494Z,4.35
2019-05-06T01:12:34.646Z,5.00
2019-05-06T01:15:09.139Z,4.45
2019-05-06T01:17:44.418Z,4.78
2019-05-06T01:20:17.764Z,5.10
2019-05-06T01:22:50.026Z,4.50
2019-05-06T01:25:23.743Z,4.47
2019-05-06T01:27:56.024Z,4.50
2019-05-06T01:30:28.296Z,4.62
2019-05-06T01:33:00.453Z,4.47
2019-05-06T01:35:35.061Z,3.90
2019-05-06T01:38:20.672Z,4.17
2019-05-06T01:40:54.770Z,4.33
2019-05-06T01:43:28.900Z,4.08
2019-05-06T01:46:01.069Z,4.15
2019-05-06T01:48:50.027Z,4.15
2019-05-06T01:51:24.119Z,4.05
2019-05-06T01:53:56.615Z,4.50
2019-05-06T01:56:28.869Z,5.22
2019-05-06T01:59:01.261Z,4.75
2019-05-06T02:01:34.272Z,4.50
2019-05-06T02:04:07.633Z,4.00
2019-05-06T02:06:39.923Z,4.75
2019-05-06T02:09:15.857Z,4.60
2019-05-06T02:11:48.385Z,4.72
2019-05-06T02:14:20.608Z,4.47
2019-05-06T02:16:54.540Z,4.60
2019-05-06T02:19:26.931Z,4.60
2019-05-06T02:22:01.133Z,5.08
2019-05-06T02:24:35.150Z,4.42
2019-05-06T02:27:07.826Z,4.12
2019-05-06T02:29:43.451Z,4.40
2019-05-06T02:32:26.078Z,4.65
2019-05-06T02:35:07.769Z,4.53
2019-05-06T02:37:46.871Z,4.60
2019-05-06T02:40:25.064Z,4.47
2019-05-06T02:42:55.846Z,4.30
2019-05-06T02:45:28.227Z,4.53
2019-05-06T02:48:14.155Z,4.78
2019-05-06T02:50:48.012Z,4.55
2019-05-06T02:53:23.595Z,4.50
2019-05-06T02:55:56.443Z,4.60
2019-05-06T02:58:33.627Z,4.60
2019-05-06T03:01:06.222Z,4.58
2019-05-06T03:03:38.689Z,4.58
2019-05-06T03:06:13.110Z,4.45
2019-05-06T03:08:45.283Z,4.67
2019-05-06T03:11:17.865Z,4.55
2019-05-06T03:13:50.337Z,4.45
2019-05-06T03:16:23.787Z,5.08
2019-05-06T03:18:56.094Z,4.53
2019-05-06T03:21:33.653Z,4.60
2019-05-06T03:24:18.360Z,4.67
2019-05-06T03:26:56.856Z,4.17
2019-05-06T03:29:29.454Z,4.80
2019-05-06T03:32:06.135Z,4.58
2019-05-06T03:34:57.961Z,4.87
2019-05-06T03:37:09.646Z,4.70
2019-05-06T03:39:43.367Z,4.80
2019-05-06T03:42:16.597Z,4.95
2019-05-06T03:44:53.293Z,4.60
2019-05-06T03:47:29.469Z,4.72
2019-05-06T03:50:04.727Z,4.70
2019-05-06T03:52:35.876Z,5.20
2019-05-06T03:55:08.447Z,4.95
2019-05-06T03:57:42.764Z,4.25
2019-05-06T04:00:16.295Z,4.62
2019-05-06T04:02:48.854Z,4.35
2019-05-06T04:05:23.775Z,4.50
2019-05-06T04:07:55.587Z,4.87
2019-05-06T04:10:28.126Z,4.97
2019-05-06T04:13:04.135Z,5.50
2019-05-06T04:18:23.855Z,4.65
2019-05-06T04:20:56.845Z,4.83
2019-05-06T04:23:33.159Z,4.90
2019-05-06T04:26:16.130Z,4.65
2019-05-06T04:28:48.517Z,4.20
2019-05-06T04:31:22.865Z,4.33
2019-05-06T04:34:08.428Z,4.30
2019-05-06T04:36:28.744Z,4.28
2019-05-06T04:39:13.180Z,4.00
2019-05-06T04:41:45.144Z,4.37
2019-05-06T04:44:17.693Z,4.00
2019-05-06T04:46:49.982Z,4.47
2019-05-06T04:49:23.746Z,4.22
2019-05-06T04:51:56.059Z,4.17
2019-05-06T04:54:28.247Z,3.80
2019-05-06T04:57:00.533Z,4.20
2019-05-06T04:59:33.104Z,4.97
2019-05-06T05:02:05.399Z,4.35
2019-05-06T05:04:38.031Z,5.70
2019-05-06T05:07:12.637Z,3.83
2019-05-06T05:09:44.410Z,4.03
2019-05-06T05:12:18.075Z,3.70
2019-05-06T05:14:55.196Z,3.75
2019-05-06T05:17:33.114Z,4.03
2019-05-06T05:20:07.670Z,4.17
2019-05-06T05:22:42.219Z,3.53
2019-05-06T05:25:13.731Z,3.83
2019-05-06T05:27:46.132Z,3.95
2019-05-06T05:30:18.466Z,4.17
2019-05-06T05:32:52.092Z,4.10
2019-05-06T05:35:24.328Z,4.15
2019-05-06T05:37:56.733Z,3.80
2019-05-06T05:40:29.288Z,3.92
2019-05-06T05:43:18.554Z,4.20
2019-05-06T05:45:52.331Z,3.80
2019-05-06T05:48:42.538Z,3.98
2019-05-06T05:51:15.009Z,3.62
2019-05-06T05:53:47.473Z,4.45
2019-05-06T05:56:19.760Z,3.35
2019-05-06T05:58:53.555Z,3.90
2019-05-06T06:01:25.901Z,4.25
2019-05-06T11:49:04.964Z,1.50
2019-05-06T11:51:38.144Z,1.10
2019-05-06T11:54:17.449Z,1.10
2019-05-06T11:56:50.904Z,0.98
2019-05-06T11:59:19.489Z,1.10
2019-05-06T12:01:53.693Z,0.95
2019-05-06T12:04:25.916Z,1.00
2019-05-06T12:07:10.335Z,1.00
2019-05-06T12:09:35.442Z,0.80
2019-05-06T12:12:07.713Z,0.98
2019-05-06T12:14:40.077Z,1.20
2019-05-06T12:17:12.831Z,1.00
2019-05-06T12:19:45.194Z,1.32
2019-05-06T12:22:17.221Z,0.80
2019-05-06T12:24:49.355Z,2.75
2019-05-06T12:27:26.285Z,2.35
2019-05-06T12:29:58.790Z,1.22
2019-05-06T12:32:33.095Z,0.93
2019-05-06T12:35:07.216Z,1.05
2019-05-06T12:37:44.056Z,1.12
2019-05-06T12:40:16.248Z,1.30
2019-05-06T12:42:49.910Z,1.20
2019-05-06T12:45:35.601Z,1.00
2019-05-06T12:48:13.071Z,1.00
2019-05-06T12:50:44.868Z,1.45
2019-05-06T12:53:17.031Z,0.85
2019-05-06T12:55:49.276Z,1.02
2019-05-06T12:58:23.369Z,1.10
2019-05-06T13:00:55.557Z,1.32
2019-05-06T13:03:27.736Z,1.15
2019-05-06T13:06:00.000Z,0.95
2019-05-06T13:08:52.647Z,1.00
2019-05-06T13:11:07.860Z,1.05
2019-05-06T13:13:55.566Z,0.95
2019-05-06T13:16:15.871Z,0.90
2019-05-06T13:18:51.658Z,0.72
2019-05-06T13:21:22.468Z,1.82
2019-05-06T13:23:56.250Z,21.62
2019-05-06T13:26:28.520Z,1.20
2019-05-06T13:29:04.350Z,4.12
2019-05-06T13:31:37.664Z,1.55
2019-05-06T13:34:13.381Z,1.32
2019-05-06T13:36:45.820Z,1.37
2019-05-06T13:39:18.076Z,1.00
2019-05-06T13:41:52.978Z,1.47
2019-05-06T13:44:25.239Z,5.50
2019-05-06T13:46:57.933Z,2.37
2019-05-06T13:49:38.024Z,1.02
2019-05-06T13:54:18.876Z,1.10
2019-05-06T13:56:52.534Z,0.95
2019-05-06T13:59:29.452Z,2.30
2019-05-06T14:02:00.305Z,0.80
2019-05-06T14:04:32.777Z,0.90
2019-05-06T14:07:07.396Z,2.25
2019-05-06T14:09:42.755Z,8.90
2019-05-06T14:12:14.251Z,7.95
2019-05-06T14:14:46.484Z,0.93
2019-05-06T14:17:18.570Z,1.40
2019-05-06T14:19:53.147Z,1.30
2019-05-06T14:22:24.633Z,1.10
2019-05-06T14:24:58.538Z,1.60
2019-05-06T14:27:32.769Z,1.17
2019-05-06T14:30:08.888Z,1.07
2019-05-06T14:32:43.286Z,1.30
2019-05-06T14:35:15.502Z,1.10
2019-05-06T14:37:47.967Z,1.17
2019-05-06T14:40:22.575Z,1.10
2019-05-06T14:42:54.778Z,1.15
2019-05-06T14:45:27.040Z,1.27
2019-05-06T14:47:59.632Z,1.47
2019-05-06T14:50:44.404Z,1.30
2019-05-06T14:53:06.337Z,1.25
2019-05-06T14:55:39.727Z,1.60
2019-05-06T14:58:12.128Z,9.28
2019-05-06T15:00:44.586Z,3.77
2019-05-06T15:03:16.951Z,10.08
2019-05-06T15:05:49.319Z,7.53
2019-05-06T15:08:22.492Z,4.40
2019-05-06T15:10:54.982Z,2.80
2019-05-06T15:13:27.790Z,4.20
2019-05-06T15:16:03.487Z,2.62
2019-05-06T15:18:34.272Z,1.42
2019-05-06T16:04:02.234Z,2.87
2019-05-06T16:06:35.815Z,1.90
2019-05-06T16:09:08.311Z,1.80
2019-05-06T16:11:44.525Z,2.05
2019-05-06T16:14:16.132Z,1.60
2019-05-06T16:16:48.589Z,2.02
2019-05-06T16:19:22.839Z,1.90
2019-05-06T16:21:54.978Z,2.12
2019-05-06T16:24:34.573Z,1.77
2019-05-06T16:27:05.578Z,1.85
2019-05-06T16:29:37.953Z,2.15
2019-05-06T16:32:10.868Z,2.00
2019-05-06T16:34:44.029Z,1.80
2019-05-06T16:37:16.409Z,2.30
2019-05-06T16:39:48.781Z,2.42
2019-05-06T16:42:22.588Z,2.20
2019-05-06T16:44:54.860Z,3.15
2019-05-06T16:47:38.045Z,3.00
2019-05-06T16:50:13.365Z,2.95
2019-05-06T16:52:45.930Z,5.40
2019-05-06T16:55:19.817Z,6.65
2019-05-06T16:57:53.928Z,2.13
2019-05-06T17:00:27.841Z,2.37
2019-05-06T17:03:07.668Z,2.42
2019-05-06T17:05:44.662Z,2.08
2019-05-06T17:08:17.023Z,2.33
2019-05-06T17:10:49.318Z,3.08
2019-05-06T17:13:22.820Z,3.08
2019-05-06T17:15:55.185Z,3.47
2019-05-06T17:18:27.767Z,3.80
2019-05-06T17:21:00.346Z,3.62
2019-05-06T17:23:33.947Z,3.20
2019-05-06T17:26:06.325Z,3.40
2019-05-06T17:28:46.379Z,5.25
2019-05-06T17:31:22.325Z,5.90
2019-05-06T17:34:09.325Z,5.42
2019-05-06T17:36:42.240Z,5.58
2019-05-06T17:39:14.586Z,5.37
2019-05-06T17:41:49.161Z,5.33
2019-05-06T17:44:22.836Z,5.25
2019-05-06T17:47:05.847Z,4.85
2019-05-06T17:49:39.451Z,5.05
2019-05-06T17:52:22.554Z,4.58
2019-05-06T17:54:54.851Z,4.87
2019-05-06T17:57:27.204Z,5.35
2019-05-06T17:59:59.679Z,4.42
2019-05-06T18:02:33.077Z,4.20
2019-05-06T18:05:06.084Z,4.17
2019-05-06T18:07:39.276Z,7.15
2019-05-06T18:10:12.087Z,8.73
2019-05-06T18:12:44.521Z,6.10
2019-05-06T18:15:17.120Z,16.97
2019-05-06T18:17:52.477Z,12.53
2019-05-06T18:20:24.923Z,12.30
2019-05-06T18:22:57.603Z,9.55
2019-05-06T18:25:32.806Z,6.80
2019-05-06T18:28:05.235Z,6.85
2019-05-06T18:30:37.917Z,14.20
2019-05-06T18:33:10.285Z,11.63
2019-05-06T18:35:42.651Z,9.63
2019-05-06T18:38:15.142Z,14.05
2019-05-06T18:40:47.606Z,22.37
2019-05-06T18:43:20.204Z,42.13
2019-05-06T18:45:52.574Z,29.60
2019-05-06T18:48:29.540Z,68.83
2019-05-06T18:50:59.173Z,26.37
2019-05-06T18:53:33.128Z,26.80
2019-05-06T18:56:06.168Z,28.77
2019-05-06T18:58:38.747Z,25.12
2019-05-06T19:01:13.211Z,27.02
2019-05-06T19:03:46.551Z,24.50
2019-05-06T19:06:18.824Z,24.05
2019-05-06T19:09:02.576Z,21.07
2019-05-06T19:11:36.498Z,22.13
2019-05-06T19:14:08.744Z,22.85
2019-05-06T19:16:49.956Z,23.70
2019-05-06T19:19:15.334Z,27.95
2019-05-06T19:21:47.824Z,21.27
2019-05-06T19:24:22.467Z,30.60
2019-05-06T19:26:54.110Z,164.07
2019-05-06T19:29:27.011Z,103.92
2019-05-06T19:31:59.255Z,61.23
2019-05-06T19:34:35.210Z,52.93
2019-05-06T19:37:07.074Z,30.02
2019-05-06T19:39:39.672Z,21.52
2019-05-06T19:42:12.971Z,22.00
2019-05-06T19:44:46.363Z,33.63
2019-05-06T19:47:18.929Z,30.60
2019-05-06T19:49:53.156Z,33.18
2019-05-06T19:52:25.432Z,24.27
2019-05-06T19:54:58.019Z,31.77
2019-05-06T19:57:32.346Z,37.70
2019-05-06T20:00:05.427Z,35.35
2019-05-06T20:02:39.233Z,42.13
2019-05-06T20:05:13.141Z,38.20
2019-05-06T20:07:47.151Z,27.75
2019-05-06T20:10:33.224Z,16.02
2019-05-06T20:13:06.318Z,14.55
2019-05-06T20:15:39.618Z,17.60
2019-05-06T20:18:11.781Z,35.10
2019-05-06T20:20:44.366Z,42.40
2019-05-06T20:23:16.736Z,37.85
2019-05-06T20:25:49.125Z,40.35
2019-05-06T20:28:22.742Z,50.20
2019-05-06T20:30:56.213Z,49.63
2019-05-06T20:33:28.913Z,42.85
2019-05-06T20:36:02.414Z,40.70
2019-05-06T20:38:34.566Z,44.05
2019-05-06T20:41:07.269Z,43.45
2019-05-06T20:43:42.362Z,45.65
2019-05-06T20:46:14.783Z,45.15
2019-05-06T20:48:47.154Z,38.50
2019-05-06T20:51:21.800Z,36.25
2019-05-06T20:53:53.422Z,37.35
2019-05-06T20:56:26.001Z,31.33
2019-05-06T20:58:58.583Z,24.75
2019-05-06T21:01:32.627Z,18.17
2019-05-06T21:04:04.990Z,15.55
2019-05-06T21:06:37.548Z,11.25
2019-05-06T21:09:12.222Z,14.23
2019-05-06T21:11:44.243Z,19.07
2019-05-06T21:14:16.824Z,20.97
2019-05-06T21:16:49.216Z,21.87
2019-05-06T21:19:22.223Z,26.77
2019-05-06T21:21:54.765Z,30.55
2019-05-06T21:24:27.158Z,31.93
2019-05-06T21:27:02.817Z,33.05
2019-05-06T21:29:34.772Z,33.63
2019-05-06T21:32:07.134Z,34.30
2019-05-06T21:34:39.724Z,33.45
2019-05-06T21:37:12.399Z,33.40
2019-05-06T21:39:44.763Z,33.25
2019-05-06T21:42:18.999Z,30.83
2019-05-06T21:44:52.269Z,31.30
2019-05-06T21:47:24.656Z,29.60
2019-05-06T21:49:57.258Z,29.67
2019-05-06T21:52:38.885Z,28.40
2019-05-06T21:55:04.359Z,28.35
2019-05-06T21:57:36.625Z,26.37
2019-05-06T22:00:12.662Z,20.90
2019-05-06T22:02:46.289Z,18.62
2019-05-06T22:05:18.954Z,16.10
2019-05-06T22:07:52.567Z,13.93
2019-05-06T22:10:25.238Z,10.98
2019-05-06T22:12:57.633Z,9.63
2019-05-06T22:15:32.257Z,6.08
2019-05-06T22:18:04.224Z,4.40
2019-05-06T22:20:55.222Z,3.75
2019-05-06T22:23:28.911Z,4.00
2019-05-06T22:26:10.836Z,3.50
2019-05-06T22:28:35.144Z,2.75
2019-05-06T22:31:07.584Z,2.95
2019-05-06T22:33:39.950Z,3.20
2019-05-06T22:36:13.197Z,2.52
2019-05-06T22:38:45.527Z,2.52
2019-05-06T22:41:18.006Z,3.27
2019-05-06T22:43:50.489Z,3.12
2019-05-06T22:46:23.562Z,3.52
2019-05-06T22:48:56.053Z,2.98
2019-05-06T22:51:28.415Z,2.72
2019-05-06T22:54:02.726Z,2.62
2019-05-06T22:56:34.903Z,3.35
2019-05-06T22:59:07.394Z,3.60
2019-05-06T23:01:43.089Z,2.37
2019-05-06T23:04:16.526Z,2.98
2019-05-06T23:06:48.609Z,3.15
2019-05-06T23:09:22.887Z,4.40
2019-05-06T23:11:54.897Z,3.87
2019-05-06T23:14:31.499Z,4.45
2019-05-06T23:17:02.882Z,3.60
2019-05-06T23:19:35.496Z,4.47
2019-05-06T23:22:07.873Z,3.70
2019-05-06T23:24:40.249Z,3.17
2019-05-06T23:27:12.745Z,2.00
2019-05-06T23:29:45.155Z,1.62
2019-05-06T23:32:17.274Z,1.80
2019-05-06T23:34:52.358Z,2.25
2019-05-06T23:37:23.582Z,1.85
2019-05-06T23:40:35.006Z,1.52
2019-05-06T23:43:44.018Z,1.57
2019-05-06T23:46:53.145Z,1.05
2019-05-06T23:50:03.539Z,1.47
2019-05-06T23:53:12.995Z,1.75
2019-05-06T23:56:21.902Z,1.60
2019-05-06T23:58:54.291Z,1.82
